Time;durP1;ratioP1;P1;durP2;ratioP2;P2;SDS_P1;SDS_P2;PMS_P1;PMS_P2;Temp;Humidity;BMP_temperature;BMP_pressure;BME280_temperature;BME280_humidity;BME280_pressure;Samples;Min_cycle;Max_cycle;Signal;HPM_P1;HPM_P2
2021/06/17 00:01:59;;;;;;;;;;;24.90;56.10;;;;;;5072204;28;20443;-63
2021/06/17 00:04:25;;;;;;;;;;;24.90;56.30;;;;;;5077963;28;19923;-63
2021/06/17 00:06:50;;;;;;;;;;;24.90;55.90;;;;;;5082755;28;19916;-62
2021/06/17 00:09:16;;;;;;;;;;;24.90;56.10;;;;;;5074556;28;19962;-61
2021/06/17 00:11:42;;;;;;;;;;;24.90;56.10;;;;;;5069618;28;19984;-62
2021/06/17 00:14:07;;;;;;;;;;;24.90;55.70;;;;;;5068989;28;19924;-62
2021/06/17 00:16:32;;;;;;;;;;;24.90;55.70;;;;;;5068277;28;19912;-61
2021/06/17 00:18:58;;;;;;;;;;;24.90;56.00;;;;;;5077649;28;19956;-62
2021/06/17 00:21:23;;;;;;;;;;;24.90;55.70;;;;;;5069646;28;20670;-63
2021/06/17 00:23:49;;;;;;;;;;;24.90;55.90;;;;;;5071067;28;19920;-63
2021/06/17 00:26:14;;;;;;;;;;;24.90;55.70;;;;;;5071462;28;19920;-64
2021/06/17 00:28:40;;;;;;;;;;;24.90;55.70;;;;;;5069350;28;19921;-63
2021/06/17 00:31:05;;;;;;;;;;;24.90;55.40;;;;;;5076278;28;20336;-63
2021/06/17 00:33:32;;;;;;;;;;;24.90;55.50;;;;;;5069301;28;19916;-64
2021/06/17 00:35:58;;;;;;;;;;;24.90;55.40;;;;;;5067166;28;19995;-64
2021/06/17 00:38:23;;;;;;;;;;;24.90;55.60;;;;;;5073427;28;19919;-64
2021/06/17 00:40:51;;;;;;;;;;;24.90;55.20;;;;;;5074873;28;19913;-63
2021/06/17 00:43:16;;;;;;;;;;;24.90;55.10;;;;;;5066359;28;20598;-62
2021/06/17 00:45:42;;;;;;;;;;;24.90;55.00;;;;;;5064820;28;19956;-62
2021/06/17 00:48:08;;;;;;;;;;;24.90;55.10;;;;;;5050412;28;20300;-62
2021/06/17 00:50:35;;;;;;;;;;;24.90;54.90;;;;;;5069140;28;19924;-60
2021/06/17 00:53:00;;;;;;;;;;;24.90;55.00;;;;;;5055954;28;19982;-62
2021/06/17 00:55:26;;;;;;;;;;;24.90;54.80;;;;;;5064848;28;20011;-61
2021/06/17 00:57:52;;;;;;;;;;;24.90;54.80;;;;;;5067264;28;20358;-61
2021/06/17 01:00:17;;;;;;;;;;;24.90;55.30;;;;;;5065605;28;19944;-61
2021/06/17 01:02:43;;;;;;;;;;;24.90;55.10;;;;;;5051602;28;19984;-63
2021/06/17 01:05:09;;;;;;;;;;;24.90;55.00;;;;;;5061753;28;19921;-61
2021/06/17 01:07:37;;;;;;;;;;;24.90;54.50;;;;;;5064984;28;19931;-61
2021/06/17 01:10:05;;;;;;;;;;;24.90;55.10;;;;;;5065053;28;19923;-62
2021/06/17 01:12:49;;;;;;;;;;;24.90;54.70;;;;;;5057620;28;19924;-61
2021/06/17 01:15:16;;;;;;;;;;;24.90;54.60;;;;;;5036684;28;19996;-64
2021/06/17 01:17:43;;;;;;;;;;;24.90;54.50;;;;;;5070253;28;20039;-61
2021/06/17 01:20:08;;;;;;;;;;;24.90;54.80;;;;;;5065849;28;19932;-62
2021/06/17 01:22:39;;;;;;;;;;;24.90;55.20;;;;;;5061036;28;19920;-61
2021/06/17 01:25:09;;;;;;;;;;;24.80;54.60;;;;;;5058939;28;19923;-62
2021/06/17 01:27:52;;;;;;;;;;;24.90;54.50;;;;;;5063216;28;19920;-62
2021/06/17 01:30:18;;;;;;;;;;;24.90;54.50;;;;;;5065005;28;19944;-63
2021/06/17 01:32:47;;;;;;;;;;;24.80;54.40;;;;;;5061287;28;19920;-64
2021/06/17 01:35:12;;;;;;;;;;;24.80;54.20;;;;;;5049106;28;21633;-60
2021/06/17 01:37:38;;;;;;;;;;;24.80;54.20;;;;;;5061657;28;19924;-62
2021/06/17 01:40:04;;;;;;;;;;;24.80;54.00;;;;;;5060278;28;19959;-62
2021/06/17 01:42:29;;;;;;;;;;;24.80;54.20;;;;;;5046210;28;19917;-61
2021/06/17 01:44:55;;;;;;;;;;;24.80;54.20;;;;;;5073140;28;19923;-62
2021/06/17 01:47:20;;;;;;;;;;;24.80;54.40;;;;;;5068184;28;19924;-62
2021/06/17 01:49:46;;;;;;;;;;;24.80;54.40;;;;;;5074218;28;20373;-64
2021/06/17 01:52:11;;;;;;;;;;;24.80;54.00;;;;;;5070556;28;19924;-61
2021/06/17 01:54:38;;;;;;;;;;;24.80;54.40;;;;;;5067802;28;19920;-64
2021/06/17 01:57:04;;;;;;;;;;;24.80;54.20;;;;;;5068185;28;20492;-61
2021/06/17 01:59:31;;;;;;;;;;;24.80;54.00;;;;;;5077052;28;20213;-62
2021/06/17 02:01:56;;;;;;;;;;;24.80;54.00;;;;;;5064218;28;20065;-62
2021/06/17 02:04:22;;;;;;;;;;;24.80;54.10;;;;;;5072015;28;20196;-62
2021/06/17 02:06:47;;;;;;;;;;;24.90;54.10;;;;;;5063875;28;20336;-64
2021/06/17 02:09:13;;;;;;;;;;;24.80;54.10;;;;;;5073445;28;19974;-65
2021/06/17 02:11:38;;;;;;;;;;;24.80;54.00;;;;;;5045566;28;19986;-61
2021/06/17 02:14:04;;;;;;;;;;;24.80;54.00;;;;;;5058635;28;19916;-62
2021/06/17 02:16:29;;;;;;;;;;;24.80;54.20;;;;;;5074298;28;20348;-64
2021/06/17 02:18:55;;;;;;;;;;;24.80;54.00;;;;;;5079070;28;20011;-61
2021/06/17 02:21:21;;;;;;;;;;;24.80;54.10;;;;;;5077101;28;19916;-61
2021/06/17 02:23:55;;;;;;;;;;;24.80;54.10;;;;;;5072927;28;19936;-63
2021/06/17 02:26:20;;;;;;;;;;;24.80;54.00;;;;;;5069401;28;20575;-65
2021/06/17 02:28:46;;;;;;;;;;;24.80;54.00;;;;;;5067674;28;19967;-63
2021/06/17 02:31:12;;;;;;;;;;;24.80;54.00;;;;;;5063635;28;20265;-65
2021/06/17 02:33:38;;;;;;;;;;;24.80;54.10;;;;;;5060113;28;19916;-63
2021/06/17 02:36:03;;;;;;;;;;;24.80;54.00;;;;;;5072955;28;20499;-64
2021/06/17 02:38:31;;;;;;;;;;;24.80;53.90;;;;;;5066708;28;19919;-63
2021/06/17 02:40:57;;;;;;;;;;;24.70;54.00;;;;;;5047616;28;19916;-63
2021/06/17 02:43:23;;;;;;;;;;;24.70;53.90;;;;;;5073318;28;19912;-61
2021/06/17 02:45:48;;;;;;;;;;;24.70;54.00;;;;;;5062783;28;19912;-61
2021/06/17 02:48:14;;;;;;;;;;;24.70;54.10;;;;;;5071029;28;20581;-61
2021/06/17 02:50:39;;;;;;;;;;;24.70;54.10;;;;;;5054456;28;19916;-62
2021/06/17 02:53:05;;;;;;;;;;;24.70;54.10;;;;;;5065726;22;19944;-61
2021/06/17 02:55:30;;;;;;;;;;;24.70;54.00;;;;;;5057806;28;20387;-60
2021/06/17 02:58:04;;;;;;;;;;;24.70;54.00;;;;;;5056730;28;19919;-60
2021/06/17 03:00:30;;;;;;;;;;;24.70;54.10;;;;;;5053808;28;19959;-60
2021/06/17 03:03:03;;;;;;;;;;;24.70;54.10;;;;;;5058989;28;19913;-61
2021/06/17 03:05:32;;;;;;;;;;;24.70;54.10;;;;;;5058969;28;20438;-60
2021/06/17 03:07:59;;;;;;;;;;;24.70;54.10;;;;;;5059024;28;19913;-61
2021/06/17 03:10:24;;;;;;;;;;;24.70;54.00;;;;;;5053752;28;19913;-61
2021/06/17 03:12:50;;;;;;;;;;;24.70;54.00;;;;;;5059195;28;19959;-61
2021/06/17 03:15:16;;;;;;;;;;;24.70;54.00;;;;;;5056939;28;20061;-61
2021/06/17 03:17:42;;;;;;;;;;;24.70;53.90;;;;;;5043299;28;19975;-60
2021/06/17 03:20:08;;;;;;;;;;;24.60;53.90;;;;;;5058475;28;19938;-60
2021/06/17 03:22:33;;;;;;;;;;;24.70;53.90;;;;;;5039714;28;19916;-61
2021/06/17 03:25:01;;;;;;;;;;;24.70;53.80;;;;;;5056625;28;20332;-59
2021/06/17 03:27:27;;;;;;;;;;;24.60;53.70;;;;;;5056824;28;20400;-61
2021/06/17 03:29:52;;;;;;;;;;;24.70;53.80;;;;;;5057287;28;19917;-60
2021/06/17 03:32:18;;;;;;;;;;;24.60;53.60;;;;;;5057261;28;20289;-65
2021/06/17 03:34:44;;;;;;;;;;;24.60;53.70;;;;;;5057705;28;19952;-59
2021/06/17 03:37:10;;;;;;;;;;;24.60;53.70;;;;;;5058631;28;20006;-59
2021/06/17 03:39:35;;;;;;;;;;;24.60;53.70;;;;;;5060920;28;19912;-61
2021/06/17 03:42:01;;;;;;;;;;;24.60;53.80;;;;;;5061756;28;19917;-61
2021/06/17 03:44:26;;;;;;;;;;;24.70;54.00;;;;;;5061261;28;19999;-60
2021/06/17 03:46:52;;;;;;;;;;;24.70;54.00;;;;;;5059841;28;19917;-61
2021/06/17 03:49:17;;;;;;;;;;;24.70;54.10;;;;;;5062542;28;19912;-60
2021/06/17 03:51:43;;;;;;;;;;;24.70;54.20;;;;;;5062461;28;20511;-59
2021/06/17 03:54:08;;;;;;;;;;;24.70;54.40;;;;;;5055444;28;19969;-60
2021/06/17 03:56:34;;;;;;;;;;;24.70;54.50;;;;;;5053667;28;19921;-60
2021/06/17 03:58:59;;;;;;;;;;;24.70;54.60;;;;;;5051564;28;19913;-61
2021/06/17 04:01:24;;;;;;;;;;;24.80;54.60;;;;;;5061858;28;19917;-61
2021/06/17 04:03:51;;;;;;;;;;;24.80;54.70;;;;;;5056754;28;20119;-61
2021/06/17 04:06:17;;;;;;;;;;;24.80;54.50;;;;;;5062851;28;19919;-60
2021/06/17 04:08:44;;;;;;;;;;;24.70;53.90;;;;;;5060934;28;19916;-61
2021/06/17 04:11:09;;;;;;;;;;;24.70;54.40;;;;;;5060552;28;19924;-59
2021/06/17 04:13:39;;;;;;;;;;;24.80;54.40;;;;;;5062577;28;19917;-60
2021/06/17 04:16:05;;;;;;;;;;;24.70;54.20;;;;;;5062575;28;20403;-60
2021/06/17 04:18:30;;;;;;;;;;;24.70;54.30;;;;;;5060255;28;19920;-59
2021/06/17 04:20:56;;;;;;;;;;;24.80;54.80;;;;;;5060493;28;19912;-60
2021/06/17 04:23:22;;;;;;;;;;;24.80;53.60;;;;;;5060380;28;20392;-60
2021/06/17 04:25:47;;;;;;;;;;;24.70;53.90;;;;;;5061486;28;20007;-60
2021/06/17 04:28:12;;;;;;;;;;;24.70;54.10;;;;;;5062417;28;20282;-60
2021/06/17 04:30:38;;;;;;;;;;;24.70;54.10;;;;;;5061566;28;19921;-61
2021/06/17 04:33:05;;;;;;;;;;;24.70;54.30;;;;;;5060658;28;20389;-60
2021/06/17 04:35:30;;;;;;;;;;;24.70;53.90;;;;;;5060633;28;19924;-61
2021/06/17 04:37:56;;;;;;;;;;;24.70;54.30;;;;;;5060348;28;20293;-60
2021/06/17 04:40:22;;;;;;;;;;;24.70;53.50;;;;;;5061140;28;20343;-62
2021/06/17 04:42:48;;;;;;;;;;;24.70;54.00;;;;;;5054552;28;19973;-60
2021/06/17 04:45:13;;;;;;;;;;;24.80;54.20;;;;;;5056774;28;20515;-61
2021/06/17 04:47:39;;;;;;;;;;;24.80;54.40;;;;;;5061908;28;19943;-59
2021/06/17 04:50:06;;;;;;;;;;;24.80;54.40;;;;;;5060136;28;20270;-60
2021/06/17 04:52:35;;;;;;;;;;;24.80;54.20;;;;;;5060587;28;19931;-61
2021/06/17 04:55:00;;;;;;;;;;;24.80;54.20;;;;;;5062341;28;20361;-61
2021/06/17 04:57:26;;;;;;;;;;;24.80;54.10;;;;;;5050065;28;19963;-58
2021/06/17 04:59:51;;;;;;;;;;;24.80;54.00;;;;;;5045960;28;20381;-61
2021/06/17 05:02:17;;;;;;;;;;;24.80;53.50;;;;;;5050123;28;20366;-60
2021/06/17 05:04:42;;;;;;;;;;;24.80;53.40;;;;;;5047961;28;19939;-61
2021/06/17 05:12:29;;;;;;;;;;;24.80;54.00;;;;;;5053387;28;19920;-61
2021/06/17 05:14:55;;;;;;;;;;;24.80;53.70;;;;;;5048361;28;19917;-61
2021/06/17 05:17:20;;;;;;;;;;;24.80;53.30;;;;;;5057880;28;19916;-60
2021/06/17 05:19:46;;;;;;;;;;;24.80;53.30;;;;;;5061264;28;19981;-61
2021/06/17 05:22:11;;;;;;;;;;;24.80;53.40;;;;;;5060522;28;19913;-61
2021/06/17 05:24:37;;;;;;;;;;;24.80;53.40;;;;;;5059249;28;19924;-61
2021/06/17 05:27:02;;;;;;;;;;;24.80;53.40;;;;;;5060637;28;19916;-61
2021/06/17 05:29:29;;;;;;;;;;;24.80;53.60;;;;;;5062007;28;20805;-61
2021/06/17 05:31:57;;;;;;;;;;;24.80;53.40;;;;;;5062467;28;20282;-61
2021/06/17 05:34:22;;;;;;;;;;;24.80;53.40;;;;;;5060950;28;19920;-62
2021/06/17 05:36:48;;;;;;;;;;;24.80;53.30;;;;;;5061644;28;20470;-61
2021/06/17 05:39:13;;;;;;;;;;;24.80;53.20;;;;;;5060641;28;22666;-60
2021/06/17 05:41:39;;;;;;;;;;;24.80;53.00;;;;;;5059447;28;19923;-59
2021/06/17 05:44:04;;;;;;;;;;;24.80;53.00;;;;;;5059045;28;19978;-61
2021/06/17 05:46:30;;;;;;;;;;;24.80;53.20;;;;;;5061104;28;20688;-61
2021/06/17 05:48:56;;;;;;;;;;;24.80;53.00;;;;;;5058166;28;19974;-59
2021/06/17 05:51:21;;;;;;;;;;;24.80;52.90;;;;;;5060377;28;19916;-59
2021/06/17 05:53:47;;;;;;;;;;;24.80;53.40;;;;;;5059571;28;20305;-60
2021/06/17 05:56:12;;;;;;;;;;;24.80;53.40;;;;;;5057460;28;19912;-59
2021/06/17 05:58:37;;;;;;;;;;;24.80;53.70;;;;;;5056446;28;19913;-60
2021/06/17 06:01:03;;;;;;;;;;;24.80;53.80;;;;;;5051889;28;20467;-61
2021/06/17 06:03:28;;;;;;;;;;;24.80;54.00;;;;;;5058058;28;19916;-60
2021/06/17 06:05:54;;;;;;;;;;;24.80;54.10;;;;;;5052140;28;19920;-62
2021/06/17 06:08:19;;;;;;;;;;;24.80;54.10;;;;;;5046260;28;19942;-62
2021/06/17 06:10:45;;;;;;;;;;;24.80;54.20;;;;;;5035262;28;19970;-60
2021/06/17 06:13:10;;;;;;;;;;;24.80;54.10;;;;;;5043189;28;19935;-62
2021/06/17 06:15:36;;;;;;;;;;;24.80;54.20;;;;;;5040096;28;19916;-62
2021/06/17 06:18:08;;;;;;;;;;;24.90;54.30;;;;;;5058083;28;19913;-61
2021/06/17 06:20:33;;;;;;;;;;;24.80;54.10;;;;;;5051157;28;19948;-61
2021/06/17 06:22:58;;;;;;;;;;;24.80;54.10;;;;;;5059266;28;19959;-61
2021/06/17 06:25:24;;;;;;;;;;;24.80;54.00;;;;;;5060165;28;19916;-61
2021/06/17 06:27:49;;;;;;;;;;;24.80;53.90;;;;;;5058108;28;19940;-60
2021/06/17 06:30:15;;;;;;;;;;;24.80;53.80;;;;;;5059745;28;19912;-60
2021/06/17 06:32:41;;;;;;;;;;;24.80;54.00;;;;;;5059339;28;20343;-61
2021/06/17 06:35:07;;;;;;;;;;;24.80;54.00;;;;;;5059485;28;20510;-60
2021/06/17 06:37:32;;;;;;;;;;;24.80;52.70;;;;;;5058306;28;19942;-61
2021/06/17 06:39:57;;;;;;;;;;;24.80;52.70;;;;;;5059813;28;19995;-62
2021/06/17 06:42:23;;;;;;;;;;;24.80;53.50;;;;;;5059358;28;20033;-61
2021/06/17 06:44:48;;;;;;;;;;;24.80;53.50;;;;;;5059782;28;19920;-61
2021/06/17 06:47:14;;;;;;;;;;;24.80;53.60;;;;;;5059462;28;19983;-61
2021/06/17 06:49:39;;;;;;;;;;;24.80;53.30;;;;;;5059804;28;19924;-61
2021/06/17 06:52:05;;;;;;;;;;;24.80;52.10;;;;;;5060408;28;20378;-60
2021/06/17 06:54:30;;;;;;;;;;;24.80;52.80;;;;;;5059270;28;19924;-60
2021/06/17 06:56:56;;;;;;;;;;;24.80;53.30;;;;;;5059483;28;19939;-61
2021/06/17 06:59:21;;;;;;;;;;;24.80;52.80;;;;;;5059672;28;20044;-60
2021/06/17 07:01:47;;;;;;;;;;;24.80;52.30;;;;;;5059824;28;19920;-60
2021/06/17 07:04:12;;;;;;;;;;;24.80;52.40;;;;;;5058962;28;19912;-60
2021/06/17 07:06:39;;;;;;;;;;;24.80;52.60;;;;;;5040958;28;20366;-60
2021/06/17 07:09:04;;;;;;;;;;;24.80;53.10;;;;;;5060299;28;19912;-60
2021/06/17 07:11:31;;;;;;;;;;;24.80;53.30;;;;;;5059947;28;19931;-61
2021/06/17 07:13:57;;;;;;;;;;;24.80;53.20;;;;;;5058433;28;19917;-60
2021/06/17 07:16:22;;;;;;;;;;;24.80;52.90;;;;;;5060219;28;19912;-60
2021/06/17 07:18:48;;;;;;;;;;;24.80;53.10;;;;;;5058868;28;19928;-61
2021/06/17 07:21:16;;;;;;;;;;;24.80;53.30;;;;;;5059677;28;20073;-61
2021/06/17 07:23:42;;;;;;;;;;;24.80;52.90;;;;;;5058142;28;19912;-61
2021/06/17 07:26:07;;;;;;;;;;;24.80;52.40;;;;;;5059804;28;20563;-59
2021/06/17 07:28:32;;;;;;;;;;;24.80;52.70;;;;;;5060182;28;19920;-61
2021/06/17 07:30:58;;;;;;;;;;;24.80;52.50;;;;;;5059482;28;19912;-60
2021/06/17 07:33:23;;;;;;;;;;;24.80;52.30;;;;;;5059803;28;19916;-64
2021/06/17 07:35:49;;;;;;;;;;;24.80;52.30;;;;;;5059693;28;19916;-60
2021/06/17 07:38:14;;;;;;;;;;;24.80;52.30;;;;;;5059561;28;20589;-60
2021/06/17 07:40:42;;;;;;;;;;;24.80;52.30;;;;;;5059919;28;20396;-61
2021/06/17 07:43:08;;;;;;;;;;;24.80;52.10;;;;;;5058247;28;19912;-60
2021/06/17 07:45:34;;;;;;;;;;;24.80;52.00;;;;;;5057883;28;19919;-59
2021/06/17 07:47:59;;;;;;;;;;;24.80;52.10;;;;;;5057068;28;20072;-61
2021/06/17 07:50:25;;;;;;;;;;;24.80;52.00;;;;;;5057981;28;19919;-61
2021/06/17 07:52:50;;;;;;;;;;;24.80;52.30;;;;;;5058449;28;19935;-59
2021/06/17 07:55:16;;;;;;;;;;;24.80;52.20;;;;;;5057262;28;19920;-60
2021/06/17 07:57:41;;;;;;;;;;;24.80;52.30;;;;;;5058492;28;20325;-61
2021/06/17 08:00:07;;;;;;;;;;;24.80;52.80;;;;;;5057975;28;19912;-62
2021/06/17 08:02:33;;;;;;;;;;;24.80;52.30;;;;;;5058187;28;19913;-61
2021/06/17 08:04:58;;;;;;;;;;;24.80;52.50;;;;;;5056170;28;20416;-60
2021/06/17 08:07:24;;;;;;;;;;;24.80;52.20;;;;;;5056610;28;19913;-64
2021/06/17 08:09:49;;;;;;;;;;;24.80;52.10;;;;;;5057417;28;20345;-61
2021/06/17 08:12:15;;;;;;;;;;;24.80;51.90;;;;;;5056441;28;19913;-59
2021/06/17 08:14:40;;;;;;;;;;;24.80;52.00;;;;;;5058060;28;19928;-59
2021/06/17 08:17:06;;;;;;;;;;;24.80;52.50;;;;;;5058616;28;19938;-60
2021/06/17 08:19:32;;;;;;;;;;;24.80;52.10;;;;;;5056650;28;19913;-58
2021/06/17 08:21:58;;;;;;;;;;;24.80;52.00;;;;;;5061820;28;20439;-61
2021/06/17 08:24:24;;;;;;;;;;;24.80;51.90;;;;;;5061872;28;19919;-61
2021/06/17 08:26:49;;;;;;;;;;;24.80;51.70;;;;;;5058624;28;19912;-60
2021/06/17 08:29:15;;;;;;;;;;;24.80;51.60;;;;;;5061431;28;19920;-59
2021/06/17 08:31:43;;;;;;;;;;;24.80;51.70;;;;;;5061631;28;19916;-59
2021/06/17 08:34:08;;;;;;;;;;;24.80;51.70;;;;;;5061854;28;19944;-60
2021/06/17 08:36:34;;;;;;;;;;;24.80;51.90;;;;;;5060265;28;19997;-61
2021/06/17 08:38:59;;;;;;;;;;;24.80;52.00;;;;;;5061960;28;19920;-64
2021/06/17 08:41:25;;;;;;;;;;;24.80;51.50;;;;;;5061425;28;20275;-61
2021/06/17 08:43:50;;;;;;;;;;;24.80;51.70;;;;;;5061941;28;19912;-61
2021/06/17 08:46:16;;;;;;;;;;;24.80;51.10;;;;;;5062970;28;19985;-61
2021/06/17 08:48:41;;;;;;;;;;;24.80;51.60;;;;;;5060804;28;19919;-61
2021/06/17 08:51:08;;;;;;;;;;;24.80;51.60;;;;;;5063016;28;19913;-60
2021/06/17 08:53:34;;;;;;;;;;;24.80;51.40;;;;;;5072311;22;19932;-60
2021/06/17 08:55:59;;;;;;;;;;;24.80;51.70;;;;;;5051068;28;19916;-61
2021/06/17 08:58:25;;;;;;;;;;;24.80;51.40;;;;;;5053486;28;19935;-63
2021/06/17 09:00:50;;;;;;;;;;;24.80;51.60;;;;;;5062317;28;19912;-62
2021/06/17 09:03:17;;;;;;;;;;;24.80;51.70;;;;;;5058820;28;19996;-62
2021/06/17 09:05:43;;;;;;;;;;;24.80;51.80;;;;;;5042978;28;19939;-62
2021/06/17 09:08:08;;;;;;;;;;;24.80;51.80;;;;;;5059716;28;20345;-63
2021/06/17 09:10:41;;;;;;;;;;;24.80;51.70;;;;;;5054990;28;19988;-63
2021/06/17 09:13:06;;;;;;;;;;;24.80;50.20;;;;;;5056157;28;19920;-57
2021/06/17 09:15:32;;;;;;;;;;;24.80;50.70;;;;;;5024115;28;19917;-61
2021/06/17 09:18:13;;;;;;;;;;;24.80;50.80;;;;;;5047727;28;20438;-62
2021/06/17 09:20:43;;;;;;;;;;;24.80;50.70;;;;;;5056182;28;20239;-60
2021/06/17 09:23:27;;;;;;;;;;;24.80;50.60;;;;;;5040435;28;19923;-61
2021/06/17 09:26:03;;;;;;;;;;;24.90;50.40;;;;;;5049261;28;19913;-60
2021/06/17 09:28:44;;;;;;;;;;;24.90;50.20;;;;;;5041802;28;20369;-61
2021/06/17 09:31:15;;;;;;;;;;;24.80;49.60;;;;;;5042054;28;20396;-60
2021/06/17 09:33:41;;;;;;;;;;;24.90;50.10;;;;;;5050209;28;19924;-60
2021/06/17 09:36:07;;;;;;;;;;;24.90;49.10;;;;;;5061900;28;19943;-61
2021/06/17 09:38:41;;;;;;;;;;;24.80;49.40;;;;;;5059523;28;19976;-62
2021/06/17 09:41:08;;;;;;;;;;;24.90;49.00;;;;;;5053069;28;19988;-63
2021/06/17 09:43:35;;;;;;;;;;;24.90;48.90;;;;;;5042113;28;19913;-60
2021/06/17 09:46:02;;;;;;;;;;;24.90;49.70;;;;;;5051759;28;19952;-62
2021/06/17 09:48:28;;;;;;;;;;;24.90;49.50;;;;;;5052498;28;19967;-62
2021/06/17 09:50:53;;;;;;;;;;;24.90;48.60;;;;;;5044721;28;19944;-61
2021/06/17 09:53:23;;;;;;;;;;;24.90;49.10;;;;;;5058571;28;21759;-62
2021/06/17 09:55:50;;;;;;;;;;;24.90;49.60;;;;;;5052358;28;19924;-64
2021/06/17 09:58:34;;;;;;;;;;;24.90;48.90;;;;;;5049760;28;19917;-64
2021/06/17 10:01:01;;;;;;;;;;;24.90;48.90;;;;;;5039289;28;20277;-62
2021/06/17 10:03:26;;;;;;;;;;;24.90;49.70;;;;;;5052770;28;20341;-61
2021/06/17 10:05:52;;;;;;;;;;;24.90;49.60;;;;;;5053129;28;19923;-63
2021/06/17 10:08:17;;;;;;;;;;;24.90;50.90;;;;;;5057639;28;20457;-62
2021/06/17 10:10:42;;;;;;;;;;;24.90;51.40;;;;;;5045542;28;19912;-62
2021/06/17 10:13:11;;;;;;;;;;;24.90;49.20;;;;;;5042366;28;19917;-62
2021/06/17 10:15:36;;;;;;;;;;;24.90;48.30;;;;;;5041671;28;19913;-62
2021/06/17 10:18:02;;;;;;;;;;;24.90;49.40;;;;;;5050759;28;19923;-60
2021/06/17 10:20:27;;;;;;;;;;;24.90;49.10;;;;;;5040870;28;20004;-62
2021/06/17 10:22:54;;;;;;;;;;;24.90;50.00;;;;;;5038974;28;19982;-63
2021/06/17 10:25:20;;;;;;;;;;;24.90;50.10;;;;;;5053427;28;19920;-63
2021/06/17 10:27:46;;;;;;;;;;;24.90;50.10;;;;;;5050604;28;19993;-62
2021/06/17 10:30:11;;;;;;;;;;;24.90;50.80;;;;;;5060756;28;20014;-61
2021/06/17 10:32:37;;;;;;;;;;;24.90;51.40;;;;;;5052198;28;20722;-62
2021/06/17 10:35:06;;;;;;;;;;;24.90;50.90;;;;;;5053315;28;19920;-63
2021/06/17 10:37:32;;;;;;;;;;;24.90;51.20;;;;;;5044181;28;19923;-63
2021/06/17 10:40:06;;;;;;;;;;;25.00;50.60;;;;;;5058057;28;19999;-61
2021/06/17 10:42:36;;;;;;;;;;;24.90;50.70;;;;;;5059900;28;19967;-64
2021/06/17 10:45:04;;;;;;;;;;;25.00;51.70;;;;;;5051274;28;20517;-62
2021/06/17 10:47:39;;;;;;;;;;;25.00;51.20;;;;;;5031130;28;20280;-63
2021/06/17 10:50:15;;;;;;;;;;;25.00;50.50;;;;;;5043598;28;19919;-60
2021/06/17 10:52:41;;;;;;;;;;;25.00;51.20;;;;;;5052725;28;19913;-61
2021/06/17 10:55:17;;;;;;;;;;;25.00;51.10;;;;;;5057129;28;19920;-64
2021/06/17 10:57:52;;;;;;;;;;;25.00;50.50;;;;;;5057915;28;19921;-61
2021/06/17 11:00:24;;;;;;;;;;;25.00;51.10;;;;;;5040566;28;19932;-58
2021/06/17 11:02:54;;;;;;;;;;;25.00;50.80;;;;;;5049693;28;20051;-61
2021/06/17 11:05:28;;;;;;;;;;;25.00;50.50;;;;;;5040423;28;19921;-62
2021/06/17 11:08:12;;;;;;;;;;;25.00;51.10;;;;;;5054577;28;20050;-62
2021/06/17 11:10:40;;;;;;;;;;;25.00;51.00;;;;;;5034794;28;19920;-61
2021/06/17 11:13:06;;;;;;;;;;;25.10;51.20;;;;;;5044834;28;19916;-60
2021/06/17 11:15:38;;;;;;;;;;;25.10;51.00;;;;;;5047651;28;19923;-60
2021/06/17 11:18:04;;;;;;;;;;;25.10;51.90;;;;;;5050727;28;20277;-62
2021/06/17 11:20:36;;;;;;;;;;;25.10;51.00;;;;;;5053283;28;19920;-64
2021/06/17 11:23:02;;;;;;;;;;;25.10;50.70;;;;;;5041399;28;20051;-60
2021/06/17 11:25:28;;;;;;;;;;;25.10;50.80;;;;;;5048046;28;19955;-60
2021/06/17 11:27:56;;;;;;;;;;;25.10;51.30;;;;;;5045024;28;19948;-62
2021/06/17 11:30:37;;;;;;;;;;;25.10;51.10;;;;;;5044385;28;19999;-60
2021/06/17 11:33:23;;;;;;;;;;;25.10;51.00;;;;;;5049144;28;20442;-60
2021/06/17 11:35:49;;;;;;;;;;;25.10;50.70;;;;;;5039602;28;19943;-61
2021/06/17 11:38:21;;;;;;;;;;;25.10;51.20;;;;;;5040793;28;19956;-60
2021/06/17 11:40:46;;;;;;;;;;;25.10;51.20;;;;;;5044307;28;19919;-60
2021/06/17 11:43:12;;;;;;;;;;;25.10;51.10;;;;;;5048802;28;20516;-62
2021/06/17 11:45:37;;;;;;;;;;;25.10;51.20;;;;;;5039131;28;19920;-60
2021/06/17 11:48:06;;;;;;;;;;;25.10;51.10;;;;;;5039669;28;19970;-61
2021/06/17 11:50:31;;;;;;;;;;;25.10;51.10;;;;;;5041098;28;19920;-59
2021/06/17 11:52:58;;;;;;;;;;;25.10;51.10;;;;;;5060777;28;19917;-60
2021/06/17 11:55:23;;;;;;;;;;;25.10;50.90;;;;;;5053102;28;19936;-59
2021/06/17 11:57:49;;;;;;;;;;;25.20;51.00;;;;;;5047576;28;19987;-61
2021/06/17 12:00:34;;;;;;;;;;;25.10;51.40;;;;;;5045571;28;19932;-61
2021/06/17 12:03:01;;;;;;;;;;;25.10;51.40;;;;;;5045247;28;20452;-63
2021/06/17 12:05:27;;;;;;;;;;;25.20;51.00;;;;;;5064242;28;19912;-61
2021/06/17 12:07:54;;;;;;;;;;;25.20;51.40;;;;;;5059057;28;20007;-61
2021/06/17 12:10:21;;;;;;;;;;;25.20;51.40;;;;;;5053015;28;19960;-61
2021/06/17 12:12:56;;;;;;;;;;;25.20;51.00;;;;;;5041054;28;19913;-63
2021/06/17 12:15:21;;;;;;;;;;;25.20;51.60;;;;;;5052612;28;20491;-62
2021/06/17 12:17:47;;;;;;;;;;;25.20;51.20;;;;;;5040792;28;19917;-61
2021/06/17 12:20:13;;;;;;;;;;;25.20;51.20;;;;;;5042896;28;20137;-60
2021/06/17 12:22:39;;;;;;;;;;;25.20;51.20;;;;;;5044361;28;20230;-63
2021/06/17 12:25:04;;;;;;;;;;;25.20;51.00;;;;;;5050039;28;19923;-62
2021/06/17 12:27:30;;;;;;;;;;;25.20;51.30;;;;;;5043381;28;20007;-62
2021/06/17 12:29:55;;;;;;;;;;;25.20;51.20;;;;;;5038758;28;19917;-60
2021/06/17 12:32:33;;;;;;;;;;;25.20;51.40;;;;;;5037901;28;20249;-61
2021/06/17 12:35:08;;;;;;;;;;;25.20;51.40;;;;;;5043689;28;20400;-61
2021/06/17 12:37:49;;;;;;;;;;;25.20;51.00;;;;;;5056830;28;19923;-60
2021/06/17 12:40:25;;;;;;;;;;;25.20;51.30;;;;;;5058766;28;19970;-63
2021/06/17 12:43:01;;;;;;;;;;;25.30;51.00;;;;;;5050309;28;19913;-61
2021/06/17 12:45:26;;;;;;;;;;;25.30;50.90;;;;;;5040012;28;20156;-64
2021/06/17 12:47:52;;;;;;;;;;;25.30;50.80;;;;;;5046804;28;20018;-60
2021/06/17 12:53:15;;;;;;;;;;;25.30;50.90;;;;;;5014682;28;19952;-62
2021/06/17 12:55:40;;;;;;;;;;;25.30;51.10;;;;;;5037855;28;20214;-59
2021/06/17 12:58:07;;;;;;;;;;;25.30;51.00;;;;;;5055217;28;20141;-61
2021/06/17 13:00:33;;;;;;;;;;;25.30;50.90;;;;;;5047300;28;19916;-61
2021/06/17 13:02:58;;;;;;;;;;;25.30;51.00;;;;;;5044606;28;20536;-62
2021/06/17 13:05:24;;;;;;;;;;;25.30;50.90;;;;;;5054668;28;19939;-63
2021/06/17 13:07:58;;;;;;;;;;;25.30;50.90;;;;;;5054208;28;20244;-64
2021/06/17 13:10:24;;;;;;;;;;;25.30;50.90;;;;;;5052529;28;20476;-64
2021/06/17 13:12:50;;;;;;;;;;;25.30;51.20;;;;;;5054870;28;19916;-64
2021/06/17 13:15:22;;;;;;;;;;;25.30;51.40;;;;;;5050464;28;20109;-64
2021/06/17 13:17:48;;;;;;;;;;;25.30;51.10;;;;;;5051264;28;19917;-61
2021/06/17 13:20:14;;;;;;;;;;;25.30;50.90;;;;;;5057276;28;19913;-63
2021/06/17 13:22:46;;;;;;;;;;;25.30;51.00;;;;;;5058993;28;20459;-63
2021/06/17 13:25:12;;;;;;;;;;;25.30;51.50;;;;;;5047000;28;19921;-61
2021/06/17 13:27:37;;;;;;;;;;;25.40;51.00;;;;;;5059723;28;19920;-61
2021/06/17 13:30:03;;;;;;;;;;;25.40;51.40;;;;;;5047599;28;20386;-61
2021/06/17 13:32:29;;;;;;;;;;;25.40;50.80;;;;;;5038146;28;19917;-61
2021/06/17 13:34:55;;;;;;;;;;;25.40;50.70;;;;;;5038830;28;20397;-62
2021/06/17 13:37:20;;;;;;;;;;;25.40;50.70;;;;;;5040210;28;20341;-62
2021/06/17 13:39:46;;;;;;;;;;;25.40;50.80;;;;;;5045001;28;19920;-61
2021/06/17 13:42:12;;;;;;;;;;;25.40;50.80;;;;;;5056410;28;20327;-61
2021/06/17 13:44:37;;;;;;;;;;;25.40;50.90;;;;;;5037051;28;20031;-62
2021/06/17 13:47:03;;;;;;;;;;;25.40;50.90;;;;;;5052616;28;19913;-63
2021/06/17 13:49:28;;;;;;;;;;;25.40;50.90;;;;;;5038158;28;19913;-62
2021/06/17 13:51:56;;;;;;;;;;;25.40;51.20;;;;;;5037196;28;19974;-61
2021/06/17 13:54:22;;;;;;;;;;;25.40;51.20;;;;;;5048943;28;19986;-63
2021/06/17 13:56:51;;;;;;;;;;;25.40;51.10;;;;;;5049121;28;20016;-61
2021/06/17 13:59:17;;;;;;;;;;;25.40;51.70;;;;;;5041905;28;19939;-61
2021/06/17 14:01:42;;;;;;;;;;;25.40;51.20;;;;;;5048213;28;19917;-61
2021/06/17 14:04:13;;;;;;;;;;;25.50;51.10;;;;;;5049537;28;19924;-62
2021/06/17 14:06:39;;;;;;;;;;;25.40;50.90;;;;;;5039722;28;19917;-60
2021/06/17 14:09:04;;;;;;;;;;;25.40;50.90;;;;;;5046397;28;19925;-62
2021/06/17 14:11:30;;;;;;;;;;;25.50;50.90;;;;;;5037382;28;20526;-63
2021/06/17 14:13:55;;;;;;;;;;;25.40;50.60;;;;;;5047781;28;19965;-63
2021/06/17 14:16:21;;;;;;;;;;;25.40;50.80;;;;;;5058337;28;19959;-62
2021/06/17 14:18:46;;;;;;;;;;;25.50;51.10;;;;;;5050548;28;20023;-63
2021/06/17 14:21:12;;;;;;;;;;;25.50;51.60;;;;;;5042449;28;19920;-64
2021/06/17 14:23:37;;;;;;;;;;;25.50;50.60;;;;;;5038710;28;19921;-61